createdAt,value
2019-05-11T00:00:53.184Z,11.80
2019-05-11T00:03:21.637Z,11.80
2019-05-11T00:05:50.076Z,11.80
2019-05-11T00:08:18.742Z,11.80
2019-05-11T00:10:47.363Z,11.80
2019-05-11T00:13:15.814Z,11.80
2019-05-11T00:15:44.256Z,11.90
2019-05-11T00:18:12.698Z,11.90
2019-05-11T00:20:41.289Z,11.90
2019-05-11T00:23:09.735Z,11.90
2019-05-11T00:28:06.391Z,11.80
2019-05-11T00:30:34.907Z,11.70
2019-05-11T00:35:31.460Z,11.40
2019-05-11T00:37:59.904Z,11.20
2019-05-11T00:40:28.364Z,11.20
2019-05-11T00:42:56.800Z,11.20
2019-05-11T00:45:25.256Z,11.20
2019-05-11T00:47:53.704Z,11.20
2019-05-11T00:50:37.598Z,11.40
2019-05-11T00:52:52.315Z,11.40
2019-05-11T00:57:48.884Z,11.40
2019-05-11T01:00:17.975Z,11.50
2019-05-11T01:02:46.413Z,11.50
2019-05-11T01:05:14.924Z,11.40
2019-05-11T01:10:23.709Z,11.20
2019-05-11T01:12:42.086Z,11.20
2019-05-11T01:15:11.253Z,11.20
2019-05-11T01:17:39.700Z,11.10
2019-05-11T01:20:08.655Z,11.20
2019-05-11T01:22:37.105Z,11.20
2019-05-11T01:25:06.781Z,11.20
2019-05-11T01:27:35.220Z,11.20
2019-05-11T01:32:32.373Z,11.00
2019-05-11T01:35:00.888Z,10.90
2019-05-11T01:37:29.514Z,10.90
2019-05-11T01:39:58.021Z,11.00
2019-05-11T01:42:26.460Z,11.00
2019-05-11T01:44:54.897Z,11.00
2019-05-11T01:47:23.335Z,10.90
2019-05-11T01:49:51.782Z,10.80
2019-05-11T01:52:20.225Z,10.90
2019-05-11T01:54:48.659Z,10.90
2019-05-11T01:57:17.120Z,11.00
2019-05-11T01:59:45.509Z,11.00
2019-05-11T02:02:13.964Z,11.10
2019-05-11T02:04:42.424Z,11.10
2019-05-11T02:09:38.977Z,11.00
2019-05-11T02:12:07.385Z,10.90
2019-05-11T02:14:35.801Z,10.90
2019-05-11T02:17:04.215Z,10.80
2019-05-11T02:19:32.612Z,10.70
2019-05-11T02:22:01.032Z,10.70
2019-05-11T02:26:57.518Z,10.80
2019-05-11T02:31:54.011Z,10.70
2019-05-11T02:36:50.492Z,10.90
2019-05-11T02:39:18.905Z,11.00
2019-05-11T02:41:47.328Z,11.00
2019-05-11T02:44:15.719Z,10.90
2019-05-11T02:46:44.129Z,10.80
2019-05-11T02:49:12.553Z,10.70
2019-05-11T02:51:41.248Z,10.80
2019-05-11T02:54:11.201Z,10.80
2019-05-11T02:56:39.609Z,10.90
2019-05-11T02:59:08.017Z,10.90
2019-05-11T03:01:36.438Z,10.90
2019-05-11T03:04:04.847Z,10.90
2019-05-11T03:06:33.251Z,11.00
2019-05-11T03:09:01.663Z,11.00
2019-05-11T03:11:30.060Z,10.90
2019-05-11T03:13:58.473Z,10.90
2019-05-11T03:16:26.873Z,10.90
2019-05-11T03:18:55.299Z,10.90
2019-05-11T03:23:51.868Z,10.70
2019-05-11T03:26:20.257Z,10.70
2019-05-11T03:28:48.660Z,10.70
2019-05-11T03:31:17.081Z,10.80
2019-05-11T03:33:45.499Z,10.90
2019-05-11T03:36:13.902Z,10.90
2019-05-11T03:38:42.318Z,10.90
2019-05-11T03:41:10.714Z,10.90
2019-05-11T03:43:39.117Z,10.80
2019-05-11T03:46:07.525Z,10.90
2019-05-11T03:48:35.937Z,11.00
2019-05-11T03:51:04.621Z,11.00
2019-05-11T03:53:33.032Z,10.90
2019-05-11T03:56:01.441Z,10.80
2019-05-11T03:58:29.857Z,10.80
2019-05-11T04:00:58.258Z,10.80
2019-05-11T04:05:54.755Z,10.80
2019-05-11T04:08:23.175Z,10.80
2019-05-11T04:10:51.947Z,10.90
2019-05-11T04:13:20.356Z,11.00
2019-05-11T04:15:48.759Z,11.10
2019-05-11T04:18:17.178Z,11.10
2019-05-11T04:20:45.573Z,11.10
2019-05-11T04:23:13.989Z,11.10
2019-05-11T04:25:43.620Z,11.20
2019-05-11T04:28:12.033Z,11.20
2019-05-11T04:30:40.434Z,11.10
2019-05-11T04:35:36.925Z,11.10
2019-05-11T04:40:33.405Z,11.20
2019-05-11T04:45:31.052Z,11.30
2019-05-11T04:47:59.473Z,11.20
2019-05-11T04:50:27.880Z,11.20
2019-05-11T04:52:56.283Z,11.20
2019-05-11T04:55:24.691Z,11.30
2019-05-11T04:57:53.149Z,11.40
2019-05-11T05:00:21.566Z,11.50
2019-05-11T05:02:49.968Z,11.60
2019-05-11T05:05:18.377Z,11.60
2019-05-11T05:10:20.122Z,11.80
2019-05-11T05:15:16.511Z,11.80
2019-05-11T05:17:44.924Z,11.80
2019-05-11T05:20:13.798Z,11.80
2019-05-11T05:22:42.224Z,11.90
2019-05-11T05:25:10.638Z,11.90
2019-05-11T05:27:39.050Z,11.90
2019-05-11T05:30:08.082Z,11.90
2019-05-11T05:32:36.661Z,11.90
2019-05-11T05:35:07.134Z,12.00
2019-05-11T05:40:04.281Z,12.00
2019-05-11T05:42:32.672Z,12.00
2019-05-11T05:45:01.096Z,12.00
2019-05-11T05:49:57.608Z,12.00
2019-05-11T05:52:26.024Z,12.00
2019-05-11T05:54:54.428Z,12.00
2019-05-11T05:57:22.825Z,12.00
2019-05-11T05:59:51.236Z,12.00
2019-05-11T06:02:19.780Z,12.10
2019-05-11T06:04:48.293Z,12.20
2019-05-11T06:07:16.694Z,12.20
2019-05-11T06:09:45.111Z,12.20
2019-05-11T06:12:13.513Z,12.30
2019-05-11T06:17:10.586Z,12.40
2019-05-11T06:19:39.006Z,12.30
2019-05-11T06:27:03.660Z,12.00
2019-05-11T06:32:00.172Z,12.10
2019-05-11T06:34:28.560Z,12.10
2019-05-11T06:36:57.052Z,12.10
2019-05-11T06:39:25.459Z,12.30
2019-05-11T06:41:53.877Z,12.40
2019-05-11T06:44:22.309Z,12.50
2019-05-11T06:49:24.981Z,12.90
2019-05-11T06:51:53.408Z,12.90
2019-05-11T06:54:21.875Z,12.90
2019-05-11T06:56:50.284Z,12.80
2019-05-11T06:59:18.772Z,12.80
2019-05-11T07:01:47.194Z,12.70
2019-05-11T07:04:15.674Z,12.70
2019-05-11T07:09:12.172Z,12.70
2019-05-11T07:11:40.586Z,12.80
2019-05-11T07:14:19.797Z,12.90
2019-05-11T07:16:39.237Z,13.10
2019-05-11T07:19:26.985Z,13.30
2019-05-11T07:21:55.399Z,13.50
2019-05-11T07:24:23.816Z,13.70
2019-05-11T07:29:20.296Z,14.10
2019-05-11T07:31:48.708Z,14.30
2019-05-11T07:34:19.840Z,14.60
2019-05-11T07:36:48.276Z,15.00
2019-05-11T07:39:18.706Z,15.30
2019-05-11T07:44:18.952Z,16.10
2019-05-11T07:46:48.331Z,16.50
2019-05-11T07:49:17.976Z,17.40
2019-05-11T07:54:18.581Z,18.20
2019-05-11T07:56:47.945Z,18.10
2019-05-11T07:59:18.369Z,18.10
2019-05-11T08:01:47.978Z,18.00
2019-05-11T08:04:18.297Z,18.20
2019-05-11T08:06:47.926Z,18.40
2019-05-11T08:09:18.575Z,19.10
2019-05-11T08:11:47.796Z,19.20
2019-05-11T08:14:18.308Z,19.10
2019-05-11T08:16:48.051Z,19.00
2019-05-11T08:21:48.092Z,18.20
2019-05-11T08:24:18.037Z,17.80
2019-05-11T08:26:48.032Z,17.50
2019-05-11T08:29:18.576Z,17.30
2019-05-11T08:31:48.749Z,17.10
2019-05-11T08:34:18.059Z,16.90
2019-05-11T08:36:48.012Z,16.80
2019-05-11T08:41:48.825Z,17.00
2019-05-11T08:44:18.210Z,16.90
2019-05-11T08:46:48.101Z,17.00
2019-05-11T08:49:18.816Z,16.80
2019-05-11T08:51:47.785Z,16.80
2019-05-11T08:54:18.314Z,16.70
2019-05-11T08:56:48.671Z,16.60
2019-05-11T08:59:18.627Z,16.70
2019-05-11T09:01:48.408Z,16.80
2019-05-11T09:11:48.163Z,18.70
2019-05-11T09:16:48.715Z,18.80
2019-05-11T09:19:17.791Z,18.80
2019-05-11T09:21:48.232Z,19.70
2019-05-11T09:24:18.921Z,21.40
2019-05-11T09:29:17.974Z,23.40
2019-05-11T09:31:48.563Z,23.80
2019-05-11T09:34:18.127Z,24.00
2019-05-11T09:36:48.061Z,23.90
2019-05-11T09:39:28.054Z,23.10
2019-05-11T09:44:28.630Z,20.70
2019-05-11T09:46:59.971Z,19.80
2019-05-11T09:51:58.727Z,18.30
2019-05-11T09:54:28.941Z,17.70
2019-05-11T09:56:57.848Z,17.30
2019-05-11T09:59:28.430Z,16.90
2019-05-11T10:01:58.936Z,16.50
2019-05-11T10:04:28.881Z,16.30
2019-05-11T10:06:58.509Z,16.20
2019-05-11T10:09:27.988Z,16.10
2019-05-11T10:11:58.460Z,16.00
2019-05-11T10:14:28.823Z,16.00
2019-05-11T10:16:58.459Z,16.10
2019-05-11T10:19:28.418Z,16.40
2019-05-11T10:21:58.077Z,16.60
2019-05-11T10:24:28.315Z,16.80
2019-05-11T10:26:57.777Z,16.90
2019-05-11T10:29:28.724Z,16.90
2019-05-11T10:31:58.763Z,16.90
2019-05-11T10:34:28.571Z,16.70
2019-05-11T10:41:58.404Z,16.10
2019-05-11T10:44:28.108Z,16.00
2019-05-11T10:46:58.963Z,15.90
2019-05-11T10:49:28.891Z,15.80
2019-05-11T10:51:58.714Z,15.70
2019-05-11T10:54:28.750Z,15.70
2019-05-11T11:01:58.797Z,15.30
2019-05-11T11:06:58.942Z,15.00
2019-05-11T11:09:28.217Z,15.00
2019-05-11T11:11:57.946Z,14.90
2019-05-11T11:16:58.402Z,14.70
2019-05-11T11:19:28.877Z,14.70
2019-05-11T11:22:06.573Z,14.60
2019-05-11T11:24:28.672Z,14.50
2019-05-11T11:26:57.636Z,14.50
2019-05-11T11:34:24.071Z,14.40
2019-05-11T11:39:20.565Z,14.70
2019-05-11T11:41:49.145Z,14.90
2019-05-11T11:44:18.520Z,15.20
2019-05-11T11:46:54.641Z,15.60
2019-05-11T11:49:18.738Z,15.90
2019-05-11T11:51:48.441Z,16.20
2019-05-11T11:54:18.224Z,16.60
2019-05-11T11:56:48.577Z,16.90
2019-05-11T11:59:17.835Z,17.10
2019-05-11T12:01:48.791Z,17.20
2019-05-11T12:04:18.811Z,17.30
2019-05-11T12:06:48.836Z,17.30
2019-05-11T12:09:18.159Z,17.30
2019-05-11T12:11:48.674Z,17.10
2019-05-11T12:14:18.713Z,16.90
2019-05-11T12:16:47.927Z,16.60
2019-05-11T12:19:18.736Z,16.30
2019-05-11T12:21:48.416Z,16.00
2019-05-11T12:24:18.699Z,15.90
2019-05-11T12:26:48.094Z,15.80
2019-05-11T12:29:18.757Z,15.60
2019-05-11T12:31:48.524Z,15.50
2019-05-11T12:34:17.955Z,15.40
2019-05-11T12:36:48.023Z,15.40
2019-05-11T12:39:18.988Z,15.30
2019-05-11T12:41:47.925Z,15.20
2019-05-11T12:44:18.601Z,15.10
2019-05-11T12:46:48.865Z,14.80
2019-05-11T12:49:18.637Z,14.70
2019-05-11T12:51:48.734Z,14.60
2019-05-11T12:56:48.927Z,14.40
2019-05-11T12:59:18.736Z,14.30
2019-05-11T13:01:48.541Z,14.30
2019-05-11T13:06:47.895Z,14.00
2019-05-11T13:09:18.390Z,13.90
2019-05-11T13:11:48.195Z,13.80
2019-05-11T13:14:18.484Z,13.70
2019-05-11T13:16:48.302Z,13.60
2019-05-11T13:21:48.504Z,13.30
2019-05-11T13:26:44.255Z,13.10
2019-05-11T13:31:40.773Z,13.00
2019-05-11T13:34:09.187Z,12.90
2019-05-11T13:41:38.331Z,12.50
2019-05-11T13:44:08.023Z,12.40
2019-05-11T13:49:08.394Z,12.00
2019-05-11T13:59:10.766Z,12.10
2019-05-11T14:01:39.652Z,12.20
2019-05-11T14:04:08.676Z,12.30
2019-05-11T14:06:37.848Z,12.40
2019-05-11T14:11:38.737Z,12.50
2019-05-11T14:14:07.790Z,12.50
2019-05-11T14:16:37.956Z,12.50
2019-05-11T14:21:38.282Z,12.40
2019-05-11T14:26:38.611Z,12.40
2019-05-11T14:29:08.538Z,12.30
2019-05-11T14:31:38.657Z,12.30
2019-05-11T14:34:08.748Z,12.30
2019-05-11T14:36:38.848Z,12.40
2019-05-11T14:39:08.459Z,12.50
2019-05-11T14:41:38.001Z,12.60
2019-05-11T14:49:07.967Z,12.70
2019-05-11T14:51:38.866Z,12.70
2019-05-11T14:54:08.146Z,12.60
2019-05-11T14:56:38.080Z,12.50
2019-05-11T14:59:08.982Z,12.50
2019-05-11T15:01:38.180Z,12.50
2019-05-11T15:04:09.077Z,12.40
2019-05-11T15:06:38.587Z,12.20
2019-05-11T15:09:08.375Z,12.20
2019-05-11T15:16:38.399Z,12.20
2019-05-11T15:19:08.102Z,12.20
2019-05-11T15:24:08.749Z,12.20
2019-05-11T15:26:38.115Z,12.30
2019-05-11T15:34:08.517Z,12.50
2019-05-11T15:36:38.714Z,12.60
2019-05-11T15:39:07.895Z,12.70
2019-05-11T15:41:38.607Z,12.80
2019-05-11T15:46:38.715Z,12.80
2019-05-11T15:49:08.798Z,12.90
2019-05-11T15:51:40.741Z,12.90
2019-05-11T15:56:38.576Z,12.80
2019-05-11T15:59:08.733Z,12.70
2019-05-11T16:04:08.929Z,12.70
2019-05-11T16:06:36.857Z,12.70
2019-05-11T16:09:08.339Z,12.70
2019-05-11T16:11:38.861Z,12.70
2019-05-11T16:14:08.609Z,12.70
2019-05-11T16:19:13.809Z,12.50
2019-05-11T16:21:38.139Z,12.40
2019-05-11T16:24:08.079Z,12.30
2019-05-11T16:34:02.649Z,12.10
2019-05-11T16:36:31.097Z,12.00
2019-05-11T16:43:58.538Z,11.90
2019-05-11T16:46:28.438Z,11.90
2019-05-11T16:48:57.842Z,11.90
2019-05-11T16:51:28.499Z,11.80
2019-05-11T16:53:58.568Z,11.80
2019-05-11T16:58:55.059Z,11.80
2019-05-11T17:01:23.678Z,11.80
2019-05-11T17:03:52.092Z,11.80
2019-05-11T17:06:20.574Z,11.80
2019-05-11T17:08:49.757Z,11.80
2019-05-11T17:11:18.651Z,11.80
2019-05-11T17:13:48.357Z,11.80
2019-05-11T17:16:17.961Z,11.80
2019-05-11T17:18:48.291Z,11.80
2019-05-11T17:21:18.389Z,11.80
2019-05-11T17:23:48.776Z,11.80
2019-05-11T17:26:19.086Z,11.80
2019-05-11T17:28:48.932Z,11.70
2019-05-11T17:31:18.773Z,11.80
2019-05-11T17:33:47.781Z,11.80
2019-05-11T17:38:47.895Z,11.90
2019-05-11T17:41:16.360Z,11.90
2019-05-11T17:43:44.773Z,11.80
2019-05-11T17:46:13.172Z,11.70
2019-05-11T17:48:41.595Z,11.60
2019-05-11T17:51:20.467Z,11.60
2019-05-11T17:53:40.172Z,11.60
2019-05-11T17:58:37.848Z,11.50
2019-05-11T18:03:43.359Z,11.40
2019-05-11T18:06:11.744Z,11.40
2019-05-11T18:08:40.150Z,11.40
2019-05-11T18:11:08.576Z,11.30
2019-05-11T18:13:39.032Z,11.30
2019-05-11T18:16:08.513Z,11.30
2019-05-11T18:18:37.793Z,11.30
2019-05-11T18:21:08.478Z,11.30
2019-05-11T18:23:38.659Z,11.30
2019-05-11T18:26:28.448Z,11.30
2019-05-11T18:28:58.568Z,11.20
2019-05-11T18:31:28.396Z,11.20
2019-05-11T18:36:28.805Z,11.20
2019-05-11T18:38:56.785Z,11.20
2019-05-11T18:41:25.192Z,11.20
2019-05-11T18:43:53.598Z,11.10
2019-05-11T18:46:22.031Z,11.10
2019-05-11T18:48:50.436Z,11.10
2019-05-11T18:51:18.861Z,11.10
2019-05-11T18:53:48.224Z,11.10
2019-05-11T18:56:18.219Z,11.10
2019-05-11T18:58:47.779Z,11.10
2019-05-11T19:01:17.828Z,11.10
2019-05-11T19:03:47.939Z,11.10
2019-05-11T19:06:18.426Z,11.10
2019-05-11T19:11:18.258Z,11.10
2019-05-11T19:13:47.828Z,11.00
2019-05-11T19:16:18.706Z,11.00
2019-05-11T19:18:47.961Z,11.00
2019-05-11T19:21:18.030Z,11.00
2019-05-11T19:23:48.637Z,11.00
2019-05-11T19:26:17.820Z,10.90
2019-05-11T19:31:14.601Z,10.90
2019-05-11T19:33:45.691Z,10.80
2019-05-11T19:36:13.147Z,10.80
2019-05-11T19:38:41.547Z,10.80
2019-05-11T19:41:09.944Z,10.70
2019-05-11T19:43:38.344Z,10.70
2019-05-11T19:46:08.817Z,10.70
2019-05-11T19:48:38.442Z,10.70
2019-05-11T19:51:10.912Z,10.70
2019-05-11T19:56:09.760Z,10.70
2019-05-11T19:58:38.221Z,10.70
2019-05-11T20:01:08.673Z,10.70
2019-05-11T20:03:37.897Z,10.60
2019-05-11T20:06:08.572Z,10.60
2019-05-11T20:08:36.595Z,10.70
2019-05-11T20:11:05.013Z,10.60
2019-05-11T20:13:33.434Z,10.60
2019-05-11T20:16:01.853Z,10.60
2019-05-11T20:20:58.340Z,10.50
2019-05-11T20:23:26.737Z,10.50
2019-05-11T20:28:23.767Z,10.50
2019-05-11T20:35:48.799Z,10.40
2019-05-11T20:38:18.742Z,10.40
2019-05-11T20:40:48.436Z,10.50
2019-05-11T20:45:48.605Z,10.50
2019-05-11T20:48:18.497Z,10.40
2019-05-11T20:55:47.817Z,10.30
2019-05-11T20:58:18.913Z,10.30
2019-05-11T21:00:48.466Z,10.20
2019-05-11T21:03:16.836Z,10.20
2019-05-11T21:08:13.317Z,10.10
2019-05-11T21:10:41.723Z,10.10
2019-05-11T21:15:38.552Z,10.00
2019-05-11T21:18:07.944Z,10.00
2019-05-11T21:20:38.024Z,10.00
2019-05-11T21:23:08.172Z,10.10
2019-05-11T21:25:37.810Z,10.10
2019-05-11T21:28:08.498Z,10.10
2019-05-11T21:30:39.708Z,10.10
2019-05-11T21:33:08.676Z,10.00
2019-05-11T21:35:38.623Z,10.00
2019-05-11T21:38:07.141Z,10.00
2019-05-11T21:40:37.916Z,10.00
2019-05-11T21:43:05.675Z,10.00
2019-05-11T21:45:34.101Z,10.00
2019-05-11T21:48:02.520Z,9.90
2019-05-11T21:50:30.902Z,9.90
2019-05-11T21:52:59.317Z,9.90
2019-05-11T21:55:29.360Z,9.90
2019-05-11T21:57:58.256Z,9.90
2019-05-11T22:00:29.716Z,9.90
2019-05-11T22:02:58.940Z,9.80
2019-05-11T22:05:28.886Z,9.80
2019-05-11T22:08:17.931Z,9.80
2019-05-11T22:10:46.696Z,9.80
2019-05-11T22:13:15.122Z,9.80
2019-05-11T22:15:43.524Z,9.80
2019-05-11T22:18:11.937Z,9.80
2019-05-11T22:20:40.989Z,9.80
2019-05-11T22:23:09.721Z,9.80
2019-05-11T22:25:38.381Z,9.80
2019-05-11T22:28:08.398Z,9.80
2019-05-11T22:30:39.086Z,9.80
2019-05-11T22:33:08.844Z,9.80
2019-05-11T22:35:38.370Z,9.80
2019-05-11T22:38:08.381Z,9.80
2019-05-11T22:40:38.351Z,9.80
2019-05-11T22:43:09.384Z,9.70
2019-05-11T22:45:38.290Z,9.70
2019-05-11T22:48:07.899Z,9.70
2019-05-11T22:50:38.167Z,9.60
2019-05-11T22:53:08.716Z,9.60
2019-05-11T22:55:38.192Z,9.60
2019-05-11T22:58:08.533Z,9.60
2019-05-11T23:00:39.919Z,9.60
2019-05-11T23:05:38.488Z,9.50
2019-05-11T23:08:07.637Z,9.50
2019-05-11T23:13:04.492Z,9.60
2019-05-11T23:15:32.884Z,9.60
2019-05-11T23:18:01.297Z,9.50
2019-05-11T23:20:30.137Z,9.50
2019-05-11T23:25:28.871Z,9.40
2019-05-11T23:27:58.804Z,9.40
2019-05-11T23:30:28.105Z,9.40
2019-05-11T23:32:58.698Z,9.40
2019-05-11T23:35:28.553Z,9.40
2019-05-11T23:37:58.135Z,9.40
2019-05-11T23:40:28.428Z,9.30
2019-05-11T23:47:58.664Z,9.30
2019-05-11T23:50:28.124Z,9.30
2019-05-11T23:53:05.973Z,9.20
2019-05-11T23:55:28.915Z,9.20
2019-05-11T23:57:57.728Z,9.20
